Portada
METAR-TAF:

METAR-TAF

Aeroports :

Valladolid, Espanya

latitud: 41-43N, longitud: 004-51W, altitud: 849 m

Observació

L'informe es va fer fa 24 minuts, a les 18:00 UTC
Vent 17 kt del Nord-Est
Temperatura 15°C
Humitat 72%
Pressió 1018 hPa
Visibilitat 10 km o més
sense núvols per sota de 1500 mi sense presència de cumulonimbus.

METAR: LEVD 191800Z 05017KT CAVOK 15/10 Q1018

Hora: 20:24 (18:24 UTC)

Pronòstic

L'informe es va fer fa 1 hora i 24 minuts, a les 17:00 UTC
Pronòstic vàlid del 19 a les 18 UTC al 20 a les 18 UTC
Vent 16 kt del Nord-Est
Visibilitat 10 km o més
Cel ennuvolat a una alçada de 2000 ft
Probabilitat 40% :
Temporalment
l' 20 a les 12 UTC al 20 a les 18 UTC
Vent 15 kt del Est amb ràfegues de 25 kt

TAF: LEVD 191700Z 1918/2018 05016KT 9999 BKN020 TX20/2015Z TN11/2006Z PROB40 TEMPO 2012/2018 09015G25KT

Observacions i pronòstics meteorològics de més de 4000 aeroports (METAR i TAF).

Les estacions disponibles són els punts grocs i vermells al mapa.

Posi el ratolí al punt desitjat per veure el nom de l'estació.

Feu clic per veure les observacions i els pronòstics meteorològics.

Per canviar el mapa: feu clic els botons verds amb una creu de color negre per apropar; al botó verd amb un guió per allunyar la imatge; o en les fletxes verdes per a mapes adjacents.


METAR-TAF: